sensor_id;sensor_type;location;lat;lon;timestamp;pressure;altitude;pressure_sealevel;temperature;humidity
63883;BME280;50047;50.596;30.466;2023-04-09T00:01:22;99883.77;;;9.27;86.41
63883;BME280;50047;50.596;30.466;2023-04-09T00:03:51;99883.73;;;9.15;85.42
63883;BME280;50047;50.596;30.466;2023-04-09T00:06:20;99888.14;;;8.93;86.62
63883;BME280;50047;50.596;30.466;2023-04-09T00:08:49;99890.39;;;8.72;87.66
63883;BME280;50047;50.596;30.466;2023-04-09T00:13:52;99894.23;;;9.32;85.59
63883;BME280;50047;50.596;30.466;2023-04-09T00:16:20;99892.09;;;9.45;83.77
63883;BME280;50047;50.596;30.466;2023-04-09T00:18:49;99884.65;;;9.41;82.56
63883;BME280;50047;50.596;30.466;2023-04-09T00:21:18;99884.13;;;9.21;82.92
63883;BME280;50047;50.596;30.466;2023-04-09T00:23:47;99882.65;;;9.04;83.52
63883;BME280;50047;50.596;30.466;2023-04-09T00:26:16;99882.04;;;8.84;84.47
63883;BME280;50047;50.596;30.466;2023-04-09T00:28:44;99884.20;;;8.69;84.90
63883;BME280;50047;50.596;30.466;2023-04-09T00:31:13;99885.59;;;8.87;86.06
63883;BME280;50047;50.596;30.466;2023-04-09T00:33:43;99882.64;;;9.15;84.85
63883;BME280;50047;50.596;30.466;2023-04-09T00:36:12;99886.04;;;9.29;83.69
63883;BME280;50047;50.596;30.466;2023-04-09T00:38:41;99883.38;;;9.24;82.69
63883;BME280;50047;50.596;30.466;2023-04-09T00:41:12;99885.30;;;9.13;82.29
63883;BME280;50047;50.596;30.466;2023-04-09T00:43:40;99878.12;;;8.93;82.46
63883;BME280;50047;50.596;30.466;2023-04-09T00:46:08;99882.59;;;8.80;82.85
63883;BME280;50047;50.596;30.466;2023-04-09T00:48:38;99884.05;;;8.67;83.07
63883;BME280;50047;50.596;30.466;2023-04-09T00:51:07;99885.34;;;8.86;84.69
63883;BME280;50047;50.596;30.466;2023-04-09T00:53:36;99885.29;;;9.25;83.24
63883;BME280;50047;50.596;30.466;2023-04-09T00:56:05;99885.81;;;9.39;82.04
63883;BME280;50047;50.596;30.466;2023-04-09T00:58:39;99886.25;;;9.39;80.81
63883;BME280;50047;50.596;30.466;2023-04-09T01:01:08;99887.10;;;9.19;80.27
63883;BME280;50047;50.596;30.466;2023-04-09T01:03:38;99890.42;;;9.02;80.12
63883;BME280;50047;50.596;30.466;2023-04-09T01:06:19;99889.73;;;8.86;79.95
63883;BME280;50047;50.596;30.466;2023-04-09T01:09:07;99896.81;;;8.76;80.12
63883;BME280;50047;50.596;30.466;2023-04-09T01:14:38;99892.53;;;9.30;82.24
63883;BME280;50047;50.596;30.466;2023-04-09T01:20:33;99891.77;;;9.11;80.45
63883;BME280;50047;50.596;30.466;2023-04-09T01:23:13;99891.25;;;8.93;80.39
63883;BME280;50047;50.596;30.466;2023-04-09T01:28:38;99890.49;;;8.60;80.13
63883;BME280;50047;50.596;30.466;2023-04-09T01:31:20;99893.73;;;8.52;80.10
63883;BME280;50047;50.596;30.466;2023-04-09T01:33:52;99889.45;;;8.69;83.06
63883;BME280;50047;50.596;30.466;2023-04-09T01:36:22;99886.19;;;8.90;82.95
63883;BME280;50047;50.596;30.466;2023-04-09T01:38:52;99886.20;;;8.95;82.21
63883;BME280;50047;50.596;30.466;2023-04-09T01:41:24;99884.84;;;8.89;81.80
63883;BME280;50047;50.596;30.466;2023-04-09T01:43:54;99882.60;;;8.77;81.70
63883;BME280;50047;50.596;30.466;2023-04-09T01:46:23;99884.42;;;8.62;82.03
63883;BME280;50047;50.596;30.466;2023-04-09T01:48:52;99880.41;;;8.40;82.87
63883;BME280;50047;50.596;30.466;2023-04-09T01:51:22;99884.05;;;8.22;83.97
63883;BME280;50047;50.596;30.466;2023-04-09T01:53:50;99883.65;;;8.37;85.67
63883;BME280;50047;50.596;30.466;2023-04-09T01:56:22;99885.00;;;8.65;85.90
63883;BME280;50047;50.596;30.466;2023-04-09T01:58:55;99885.73;;;8.75;84.95
63883;BME280;50047;50.596;30.466;2023-04-09T02:01:46;99885.14;;;8.72;83.97
63883;BME280;50047;50.596;30.466;2023-04-09T02:04:38;99885.17;;;8.54;83.68
63883;BME280;50047;50.596;30.466;2023-04-09T02:10:07;99888.33;;;8.12;83.01
63883;BME280;50047;50.596;30.466;2023-04-09T02:12:39;99889.15;;;7.99;83.83
63883;BME280;50047;50.596;30.466;2023-04-09T02:15:10;99889.23;;;8.10;88.33
63883;BME280;50047;50.596;30.466;2023-04-09T02:17:39;99885.55;;;8.38;88.62
63883;BME280;50047;50.596;30.466;2023-04-09T02:20:08;99884.58;;;8.50;87.55
63883;BME280;50047;50.596;30.466;2023-04-09T02:22:37;99886.30;;;8.46;86.84
63883;BME280;50047;50.596;30.466;2023-04-09T02:25:06;99889.63;;;8.32;86.70
63883;BME280;50047;50.596;30.466;2023-04-09T02:27:34;99895.23;;;8.12;87.60
63883;BME280;50047;50.596;30.466;2023-04-09T02:30:06;99899.14;;;7.94;87.37
63883;BME280;50047;50.596;30.466;2023-04-09T02:32:35;99898.67;;;7.79;88.34
63883;BME280;50047;50.596;30.466;2023-04-09T02:35:06;99900.51;;;7.95;90.62
63883;BME280;50047;50.596;30.466;2023-04-09T02:37:36;99895.31;;;8.20;90.64
63883;BME280;50047;50.596;30.466;2023-04-09T02:40:05;99900.88;;;8.27;89.81
63883;BME280;50047;50.596;30.466;2023-04-09T02:42:33;99903.99;;;8.26;88.89
63883;BME280;50047;50.596;30.466;2023-04-09T02:45:02;99902.99;;;8.22;87.23
63883;BME280;50047;50.596;30.466;2023-04-09T02:47:37;99905.52;;;8.09;86.44
63883;BME280;50047;50.596;30.466;2023-04-09T02:50:06;99912.30;;;7.98;86.21
63883;BME280;50047;50.596;30.466;2023-04-09T02:52:35;99909.81;;;8.29;86.98
63883;BME280;50047;50.596;30.466;2023-04-09T02:55:06;99902.42;;;8.52;87.13
63883;BME280;50047;50.596;30.466;2023-04-09T02:57:35;99902.55;;;8.63;86.05
63883;BME280;50047;50.596;30.466;2023-04-09T03:00:07;99894.70;;;8.47;85.23
63883;BME280;50047;50.596;30.466;2023-04-09T03:02:38;99895.11;;;8.19;86.22
63883;BME280;50047;50.596;30.466;2023-04-09T03:05:06;99901.93;;;7.98;86.64
63883;BME280;50047;50.596;30.466;2023-04-09T03:07:35;99899.84;;;7.73;88.27
63883;BME280;50047;50.596;30.466;2023-04-09T03:10:05;99903.41;;;7.64;88.15
63883;BME280;50047;50.596;30.466;2023-04-09T03:12:34;99905.80;;;7.84;89.44
63883;BME280;50047;50.596;30.466;2023-04-09T03:15:03;99904.11;;;8.15;88.82
63883;BME280;50047;50.596;30.466;2023-04-09T03:17:31;99902.56;;;8.27;87.09
63883;BME280;50047;50.596;30.466;2023-04-09T03:20:00;99904.20;;;8.14;86.20
63883;BME280;50047;50.596;30.466;2023-04-09T03:22:36;99910.30;;;8.12;85.29
63883;BME280;50047;50.596;30.466;2023-04-09T03:25:07;99909.51;;;8.03;84.31
63883;BME280;50047;50.596;30.466;2023-04-09T03:27:36;99911.58;;;7.88;84.54
63883;BME280;50047;50.596;30.466;2023-04-09T03:30:06;99912.13;;;7.77;84.74
63883;BME280;50047;50.596;30.466;2023-04-09T03:32:40;99916.69;;;7.98;87.11
63883;BME280;50047;50.596;30.466;2023-04-09T03:35:09;99911.17;;;8.37;87.08
63883;BME280;50047;50.596;30.466;2023-04-09T03:37:39;99910.98;;;8.54;85.19
63883;BME280;50047;50.596;30.466;2023-04-09T03:40:13;99912.36;;;8.56;83.92
63883;BME280;50047;50.596;30.466;2023-04-09T03:42:42;99914.36;;;8.45;83.11
63883;BME280;50047;50.596;30.466;2023-04-09T03:45:12;99913.23;;;8.34;82.68
63883;BME280;50047;50.596;30.466;2023-04-09T03:47:44;99914.98;;;8.25;82.11
63883;BME280;50047;50.596;30.466;2023-04-09T03:50:13;99918.95;;;8.15;82.37
63883;BME280;50047;50.596;30.466;2023-04-09T03:52:47;99909.83;;;8.38;84.44
63883;BME280;50047;50.596;30.466;2023-04-09T03:55:15;99911.82;;;8.80;83.42
63883;BME280;50047;50.596;30.466;2023-04-09T03:57:44;99909.67;;;9.03;81.76
63883;BME280;50047;50.596;30.466;2023-04-09T04:00:17;99908.77;;;9.16;80.77
63883;BME280;50047;50.596;30.466;2023-04-09T04:02:51;99909.16;;;9.31;79.49
63883;BME280;50047;50.596;30.466;2023-04-09T04:05:36;99907.27;;;9.46;78.00
63883;BME280;50047;50.596;30.466;2023-04-09T04:08:08;99907.70;;;9.69;77.04
63883;BME280;50047;50.596;30.466;2023-04-09T04:10:36;99902.73;;;9.78;76.39
63883;BME280;50047;50.596;30.466;2023-04-09T04:13:19;99902.23;;;10.00;76.65
63883;BME280;50047;50.596;30.466;2023-04-09T04:15:53;99903.92;;;10.43;76.70
63883;BME280;50047;50.596;30.466;2023-04-09T04:18:23;99907.80;;;10.56;75.64
63883;BME280;50047;50.596;30.466;2023-04-09T04:20:55;99910.73;;;10.76;75.16
63883;BME280;50047;50.596;30.466;2023-04-09T04:23:44;99908.29;;;10.79;73.62
63883;BME280;50047;50.596;30.466;2023-04-09T04:26:23;99910.52;;;11.20;72.31
63883;BME280;50047;50.596;30.466;2023-04-09T04:28:53;99913.27;;;11.70;70.55
63883;BME280;50047;50.596;30.466;2023-04-09T04:31:40;99912.23;;;11.78;69.70
63883;BME280;50047;50.596;30.466;2023-04-09T04:34:09;99915.86;;;11.66;69.76
63883;BME280;50047;50.596;30.466;2023-04-09T04:36:39;99916.04;;;11.57;70.09
63883;BME280;50047;50.596;30.466;2023-04-09T04:39:09;99916.48;;;11.60;70.16
63883;BME280;50047;50.596;30.466;2023-04-09T04:41:48;99918.70;;;12.36;69.95
63883;BME280;50047;50.596;30.466;2023-04-09T04:44:22;99914.67;;;13.11;67.99
63883;BME280;50047;50.596;30.466;2023-04-09T04:46:56;99918.52;;;13.35;67.41
63883;BME280;50047;50.596;30.466;2023-04-09T04:49:25;99922.27;;;13.16;66.90
63883;BME280;50047;50.596;30.466;2023-04-09T04:51:56;99926.88;;;13.03;68.27
63883;BME280;50047;50.596;30.466;2023-04-09T04:54:25;99930.98;;;12.72;67.78
63883;BME280;50047;50.596;30.466;2023-04-09T04:56:56;99934.94;;;12.31;68.13
63883;BME280;50047;50.596;30.466;2023-04-09T04:59:41;99934.73;;;12.07;68.30
63883;BME280;50047;50.596;30.466;2023-04-09T05:02:11;99936.56;;;11.75;68.35
63883;BME280;50047;50.596;30.466;2023-04-09T05:04:56;99937.95;;;11.46;68.85
63883;BME280;50047;50.596;30.466;2023-04-09T05:07:32;99938.64;;;11.35;68.69
63883;BME280;50047;50.596;30.466;2023-04-09T05:10:04;99938.45;;;11.36;69.11
63883;BME280;50047;50.596;30.466;2023-04-09T05:12:37;99942.51;;;11.75;68.23
63883;BME280;50047;50.596;30.466;2023-04-09T05:15:07;99947.23;;;12.34;67.25
63883;BME280;50047;50.596;30.466;2023-04-09T05:17:41;99945.23;;;12.85;65.22
63883;BME280;50047;50.596;30.466;2023-04-09T05:20:11;99947.89;;;13.27;63.68
63883;BME280;50047;50.596;30.466;2023-04-09T05:22:48;99944.66;;;13.90;62.95
63883;BME280;50047;50.596;30.466;2023-04-09T05:25:18;99947.55;;;14.55;60.11
63883;BME280;50047;50.596;30.466;2023-04-09T05:27:47;99948.36;;;15.25;59.34
63883;BME280;50047;50.596;30.466;2023-04-09T05:30:16;99955.48;;;16.11;59.41
63883;BME280;50047;50.596;30.466;2023-04-09T05:32:48;99957.59;;;17.00;57.81
63883;BME280;50047;50.596;30.466;2023-04-09T05:35:17;99955.17;;;17.84;55.43
63883;BME280;50047;50.596;30.466;2023-04-09T05:37:45;99959.32;;;18.65;54.55
63883;BME280;50047;50.596;30.466;2023-04-09T05:40:13;99954.52;;;19.65;52.47
63883;BME280;50047;50.596;30.466;2023-04-09T05:42:44;99959.67;;;20.71;51.37
63883;BME280;50047;50.596;30.466;2023-04-09T05:45:18;99959.83;;;21.66;49.76
63883;BME280;50047;50.596;30.466;2023-04-09T05:47:50;99954.92;;;22.51;48.93
63883;BME280;50047;50.596;30.466;2023-04-09T05:50:22;99960.98;;;23.15;45.32
63883;BME280;50047;50.596;30.466;2023-04-09T05:52:59;99960.94;;;23.41;44.13
63883;BME280;50047;50.596;30.466;2023-04-09T05:55:36;99962.05;;;23.90;44.34
63883;BME280;50047;50.596;30.466;2023-04-09T05:58:06;99958.81;;;24.25;42.44
63883;BME280;50047;50.596;30.466;2023-04-09T06:00:41;99959.77;;;24.61;42.42
63883;BME280;50047;50.596;30.466;2023-04-09T06:03:09;99963.92;;;25.11;41.49
63883;BME280;50047;50.596;30.466;2023-04-09T06:05:38;99970.72;;;25.71;41.18
63883;BME280;50047;50.596;30.466;2023-04-09T06:08:09;99968.17;;;26.30;40.37
63883;BME280;50047;50.596;30.466;2023-04-09T06:10:37;99966.43;;;26.53;36.95
63883;BME280;50047;50.596;30.466;2023-04-09T06:13:09;99971.51;;;26.33;34.58
63883;BME280;50047;50.596;30.466;2023-04-09T06:15:42;99976.84;;;26.03;34.16
63883;BME280;50047;50.596;30.466;2023-04-09T06:18:12;99978.94;;;25.76;37.41
63883;BME280;50047;50.596;30.466;2023-04-09T06:20:40;99978.48;;;25.37;38.67
63883;BME280;50047;50.596;30.466;2023-04-09T06:23:13;99975.67;;;24.19;38.58
63883;BME280;50047;50.596;30.466;2023-04-09T06:25:43;99977.65;;;23.16;39.36
63883;BME280;50047;50.596;30.466;2023-04-09T06:28:11;99978.65;;;22.42;42.29
63883;BME280;50047;50.596;30.466;2023-04-09T06:30:46;99980.99;;;21.52;42.05
63883;BME280;50047;50.596;30.466;2023-04-09T06:33:15;99981.95;;;20.65;43.87
63883;BME280;50047;50.596;30.466;2023-04-09T06:35:43;99983.03;;;20.08;44.30
63883;BME280;50047;50.596;30.466;2023-04-09T06:38:12;99985.20;;;19.43;45.38
63883;BME280;50047;50.596;30.466;2023-04-09T06:40:40;99984.09;;;18.88;46.00
63883;BME280;50047;50.596;30.466;2023-04-09T06:43:11;99981.25;;;18.16;47.15
63883;BME280;50047;50.596;30.466;2023-04-09T06:45:50;99984.84;;;17.64;48.11
63883;BME280;50047;50.596;30.466;2023-04-09T06:48:18;99987.23;;;17.05;49.53
63883;BME280;50047;50.596;30.466;2023-04-09T06:50:47;99987.80;;;16.60;50.48
63883;BME280;50047;50.596;30.466;2023-04-09T06:53:15;99984.11;;;16.07;52.01
63883;BME280;50047;50.596;30.466;2023-04-09T06:55:44;99985.23;;;15.66;52.85
63883;BME280;50047;50.596;30.466;2023-04-09T06:58:14;99985.71;;;15.53;53.20
63883;BME280;50047;50.596;30.466;2023-04-09T07:00:43;99984.98;;;15.31;54.68
63883;BME280;50047;50.596;30.466;2023-04-09T07:03:14;99990.95;;;15.14;54.82
63883;BME280;50047;50.596;30.466;2023-04-09T07:05:43;99988.96;;;15.15;55.13
63883;BME280;50047;50.596;30.466;2023-04-09T07:08:12;99991.22;;;14.89;56.29
63883;BME280;50047;50.596;30.466;2023-04-09T07:10:41;99991.80;;;14.62;57.45
63883;BME280;50047;50.596;30.466;2023-04-09T07:13:12;99988.98;;;14.37;58.13
63883;BME280;50047;50.596;30.466;2023-04-09T07:15:40;99991.55;;;14.17;59.21
63883;BME280;50047;50.596;30.466;2023-04-09T07:18:10;99992.38;;;14.15;59.13
63883;BME280;50047;50.596;30.466;2023-04-09T07:20:41;99992.07;;;14.01;60.19
63883;BME280;50047;50.596;30.466;2023-04-09T07:23:10;99993.35;;;13.94;60.16
63883;BME280;50047;50.596;30.466;2023-04-09T07:25:41;99996.46;;;13.93;60.14
63883;BME280;50047;50.596;30.466;2023-04-09T07:28:09;99993.44;;;13.88;60.58
63883;BME280;50047;50.596;30.466;2023-04-09T07:30:39;99994.20;;;13.89;60.97
63883;BME280;50047;50.596;30.466;2023-04-09T07:33:07;99998.14;;;13.83;61.27
63883;BME280;50047;50.596;30.466;2023-04-09T07:35:37;100001.73;;;13.82;61.35
63883;BME280;50047;50.596;30.466;2023-04-09T07:38:05;99995.14;;;13.80;62.07
63883;BME280;50047;50.596;30.466;2023-04-09T07:40:39;99995.31;;;13.88;61.76
63883;BME280;50047;50.596;30.466;2023-04-09T07:43:09;99994.71;;;13.98;61.20
63883;BME280;50047;50.596;30.466;2023-04-09T07:45:37;99995.38;;;14.03;60.77
63883;BME280;50047;50.596;30.466;2023-04-09T07:48:06;99996.21;;;14.09;60.87
63883;BME280;50047;50.596;30.466;2023-04-09T07:50:37;99996.61;;;14.17;61.20
63883;BME280;50047;50.596;30.466;2023-04-09T07:53:05;99985.23;;;14.24;60.68
63883;BME280;50047;50.596;30.466;2023-04-09T07:55:33;99983.17;;;14.34;60.29
63883;BME280;50047;50.596;30.466;2023-04-09T07:58:02;99984.44;;;14.48;59.90
63883;BME280;50047;50.596;30.466;2023-04-09T08:00:39;99982.05;;;14.66;59.63
63883;BME280;50047;50.596;30.466;2023-04-09T08:03:08;99978.14;;;14.80;59.96
63883;BME280;50047;50.596;30.466;2023-04-09T08:05:37;99981.32;;;14.85;59.56
63883;BME280;50047;50.596;30.466;2023-04-09T08:11:39;99982.86;;;14.72;58.91
63883;BME280;50047;50.596;30.466;2023-04-09T08:14:07;99977.66;;;14.50;58.90
63883;BME280;50047;50.596;30.466;2023-04-09T08:16:41;99976.17;;;14.30;58.93
63883;BME280;50047;50.596;30.466;2023-04-09T08:19:10;99977.38;;;14.27;59.35
63883;BME280;50047;50.596;30.466;2023-04-09T08:21:40;99978.05;;;14.42;59.96
63883;BME280;50047;50.596;30.466;2023-04-09T08:24:11;99972.58;;;14.51;59.84
63883;BME280;50047;50.596;30.466;2023-04-09T08:26:41;99977.13;;;14.62;59.44
63883;BME280;50047;50.596;30.466;2023-04-09T08:29:10;99976.90;;;14.68;59.34
63883;BME280;50047;50.596;30.466;2023-04-09T08:31:40;99976.34;;;14.59;58.15
63883;BME280;50047;50.596;30.466;2023-04-09T08:34:08;99967.91;;;14.61;58.39
63883;BME280;50047;50.596;30.466;2023-04-09T08:36:37;99971.52;;;14.57;59.22
63883;BME280;50047;50.596;30.466;2023-04-09T08:39:05;99973.70;;;14.74;58.88
63883;BME280;50047;50.596;30.466;2023-04-09T08:41:35;99972.55;;;14.86;58.21
63883;BME280;50047;50.596;30.466;2023-04-09T08:44:07;99971.45;;;14.95;57.70
63883;BME280;50047;50.596;30.466;2023-04-09T08:46:36;99968.67;;;14.97;57.76
63883;BME280;50047;50.596;30.466;2023-04-09T08:49:04;99972.77;;;15.02;57.64
63883;BME280;50047;50.596;30.466;2023-04-09T08:51:32;99971.23;;;15.09;57.40
63883;BME280;50047;50.596;30.466;2023-04-09T08:54:01;99965.62;;;15.09;56.97
63883;BME280;50047;50.596;30.466;2023-04-09T08:56:32;99969.95;;;15.15;57.29
